Time,TemperatureF,DewpointF,PressureIn,WindDirection,WindDirectionDegrees,WindSpeedMPH,WindSpeedGustMPH,Humidity,HourlyPrecipIn,Conditions,Clouds,dailyrainin,SoftwareType,DateUTC
2013-02-17 00:00:00,46.9,36.1,30.06,NE,46,3.0,6.0,66,0.00,RA,,0.00,WeatherDisplay:10.37,2013-02-16 23:00:00,
2013-02-17 00:15:00,46.7,35.9,30.06,NE,47,3.0,5.0,66,0.00,RA,,0.00,WeatherDisplay:10.37,2013-02-16 23:15:00,
2013-02-17 00:21:00,46.6,35.8,30.06,NE,43,3.0,5.0,66,0.00,RA,,0.00,WeatherDisplay:10.37,2013-02-16 23:21:00,
2013-02-17 00:31:00,46.6,35.5,30.07,NE,38,3.0,6.0,65,0.00,RA,,0.00,WeatherDisplay:10.37,2013-02-16 23:31:00,
2013-02-17 00:41:00,46.7,35.6,30.06,NE,52,3.0,8.0,65,0.00,CLR,,0.00,WeatherDisplay:10.37,2013-02-16 23:41:00,
2013-02-17 00:51:00,46.6,35.5,30.06,NE,36,3.0,7.0,65,0.00,CLR,,0.00,WeatherDisplay:10.37,2013-02-16 23:51:00,
2013-02-17 01:01:00,46.7,35.6,30.06,NE,45,3.0,6.0,65,0.00,CLR,,0.00,WeatherDisplay:10.37,2013-02-17 00:01:00,
2013-02-17 01:11:00,46.7,35.5,30.06,NE,51,3.0,6.0,65,0.00,CLR,,0.00,WeatherDisplay:10.37,2013-02-17 00:11:00,
2013-02-17 01:21:00,46.6,35.5,30.06,NE,51,5.0,8.0,65,0.00,CLR,,0.00,WeatherDisplay:10.37,2013-02-17 00:21:00,
2013-02-17 01:31:00,46.5,35.3,30.06,NE,53,3.0,7.0,65,0.00,CLR,,0.00,WeatherDisplay:10.37,2013-02-17 00:31:00,
2013-02-17 01:41:00,46.4,34.9,30.06,NE,56,3.0,7.0,64,0.00,CLR,,0.00,WeatherDisplay:10.37,2013-02-17 00:41:00,
2013-02-17 01:51:00,46.2,35.1,30.06,ENE,59,2.0,7.0,65,0.00,CLR,,0.00,WeatherDisplay:10.37,2013-02-17 00:51:00,
2013-02-17 02:01:00,46.0,34.4,30.06,NNE,30,3.0,6.0,64,0.00,CLR,,0.00,WeatherDisplay:10.37,2013-02-17 01:01:00,
2013-02-17 02:11:00,46.0,34.5,30.06,NE,38,5.0,6.0,64,0.00,CLR,,0.00,WeatherDisplay:10.37,2013-02-17 01:11:00,
2013-02-17 02:21:00,46.1,34.6,30.06,NE,48,3.0,6.0,64,0.00,CLR,,0.00,WeatherDisplay:10.37,2013-02-17 01:21:00,
2013-02-17 02:31:00,46.0,34.1,30.05,NE,50,5.0,7.0,63,0.00,CLR,,0.00,WeatherDisplay:10.37,2013-02-17 01:31:00,
2013-02-17 02:40:00,46.0,34.5,30.05,NE,39,3.0,5.0,64,0.00,CLR,,0.00,WeatherDisplay:10.37,2013-02-17 01:40:00,
2013-02-17 02:51:00,46.0,34.1,30.05,NE,38,3.0,6.0,63,0.00,CLR,,0.00,WeatherDisplay:10.37,2013-02-17 01:51:00,
2013-02-17 03:01:00,46.2,33.9,30.05,NNE,32,3.0,6.0,62,0.00,CLR,,0.00,WeatherDisplay:10.37,2013-02-17 02:01:00,
2013-02-17 03:11:00,46.5,33.8,30.04,NE,55,3.0,5.0,61,0.00,CLR,,0.00,WeatherDisplay:10.37,2013-02-17 02:11:00,
2013-02-17 03:21:00,46.5,33.4,30.04,NE,41,3.0,6.0,60,0.00,CLR,,0.00,WeatherDisplay:10.37,2013-02-17 02:21:00,
2013-02-17 03:31:00,46.5,33.3,30.04,NE,36,3.0,6.0,60,0.00,CLR,,0.00,WeatherDisplay:10.37,2013-02-17 02:31:00,
2013-02-17 03:41:00,46.4,33.3,30.03,NE,42,3.0,6.0,60,0.00,CLR,,0.00,WeatherDisplay:10.37,2013-02-17 02:41:00,
2013-02-17 03:51:00,46.2,33.5,30.04,NE,39,2.0,6.0,61,0.00,CLR,,0.00,WeatherDisplay:10.37,2013-02-17 02:51:00,
2013-02-17 04:01:00,46.0,32.9,30.04,NE,34,3.0,6.0,60,0.00,CLR,,0.00,WeatherDisplay:10.37,2013-02-17 03:01:00,
2013-02-17 04:11:00,45.8,33.1,30.03,NNE,30,3.0,6.0,61,0.00,CLR,,0.00,WeatherDisplay:10.37,2013-02-17 03:11:00,
2013-02-17 04:21:00,45.8,33.1,30.03,NNE,14,5.0,6.0,61,0.00,CLR,,0.00,WeatherDisplay:10.37,2013-02-17 03:21:00,
2013-02-17 04:31:00,46.0,32.9,30.03,NE,36,3.0,7.0,60,0.00,CLR,,0.00,WeatherDisplay:10.37,2013-02-17 03:31:00,
2013-02-17 04:41:00,45.9,32.8,30.03,NE,51,3.0,5.0,60,0.00,CLR,,0.00,WeatherDisplay:10.37,2013-02-17 03:41:00,
2013-02-17 04:51:00,45.9,33.2,30.03,NE,47,3.0,5.0,61,0.00,CLR,,0.00,WeatherDisplay:10.37,2013-02-17 03:51:00,
2013-02-17 05:01:00,45.7,33.1,30.03,NE,49,3.0,5.0,61,0.00,CLR,,0.00,WeatherDisplay:10.37,2013-02-17 04:01:00,
2013-02-17 05:11:00,45.6,32.9,30.03,NE,34,3.0,6.0,61,0.00,CLR,,0.00,WeatherDisplay:10.37,2013-02-17 04:11:00,
2013-02-17 05:21:00,45.6,32.9,30.03,NE,40,2.0,7.0,61,0.00,CLR,,0.00,WeatherDisplay:10.37,2013-02-17 04:21:00,
2013-02-17 05:31:00,45.5,32.9,30.03,NE,37,3.0,5.0,61,0.00,CLR,,0.00,WeatherDisplay:10.37,2013-02-17 04:31:00,
2013-02-17 05:40:00,45.6,32.9,30.03,NNE,32,3.0,6.0,61,0.00,CLR,,0.00,WeatherDisplay:10.37,2013-02-17 04:40:00,
2013-02-17 05:50:00,45.6,32.9,30.02,NE,35,3.0,5.0,61,0.00,CLR,,0.00,WeatherDisplay:10.37,2013-02-17 04:50:00,
2013-02-17 06:00:00,45.5,32.8,30.03,NE,38,3.0,5.0,61,0.00,CLR,,0.00,WeatherDisplay:10.37,2013-02-17 05:00:00,
2013-02-17 06:10:00,45.5,32.8,30.03,NE,43,2.0,4.0,61,0.00,CLR,,0.00,WeatherDisplay:10.37,2013-02-17 05:10:00,
2013-02-17 06:15:00,45.6,32.9,30.03,NE,55,1.0,4.0,61,0.00,CLR,,0.00,WeatherDisplay:10.37,2013-02-17 05:15:00,
2013-02-17 06:20:00,45.6,32.9,30.03,NE,54,2.0,5.0,61,0.00,CLR,,0.00,WeatherDisplay:10.37,2013-02-17 05:20:00,
2013-02-17 06:30:00,45.5,33.2,30.03,NE,41,2.0,4.0,62,0.00,CLR,,0.00,WeatherDisplay:10.37,2013-02-17 05:30:00,
2013-02-17 06:40:00,45.3,33.0,30.03,NE,36,2.0,4.0,62,0.00,CLR,,0.00,WeatherDisplay:10.37,2013-02-17 05:40:00,
2013-02-17 06:50:00,45.2,33.0,30.03,NE,35,2.0,4.0,62,0.00,CLR,,0.00,WeatherDisplay:10.37,2013-02-17 05:50:00,
2013-02-17 07:00:00,45.4,33.1,30.03,NNE,32,2.0,3.0,62,0.00,CLR,,0.00,WeatherDisplay:10.37,2013-02-17 06:00:00,
2013-02-17 07:10:00,45.4,33.1,30.03,NE,56,1.0,3.0,62,0.00,CLR,,0.00,WeatherDisplay:10.37,2013-02-17 06:10:00,
2013-02-17 07:20:00,45.6,33.3,30.03,NE,46,1.0,3.0,62,0.00,CLR,,0.00,WeatherDisplay:10.37,2013-02-17 06:20:00,
2013-02-17 07:30:00,45.8,33.5,30.03,NE,52,2.0,4.0,62,0.00,CLR,,0.00,WeatherDisplay:10.37,2013-02-17 06:30:00,
2013-02-17 07:40:00,46.0,33.3,30.03,NE,43,3.0,5.0,61,0.00,CLR,,0.00,WeatherDisplay:10.37,2013-02-17 06:40:00,
2013-02-17 07:50:00,46.2,33.5,30.04,ENE,69,2.0,4.0,61,0.00,CLR,,0.00,WeatherDisplay:10.37,2013-02-17 06:50:00,
2013-02-17 08:00:00,46.4,33.7,30.04,East,92,1.0,2.0,61,0.00,CLR,,0.00,WeatherDisplay:10.37,2013-02-17 07:00:00,
2013-02-17 08:10:00,46.6,33.9,30.03,ENE,72,2.0,5.0,61,0.00,CLR,,0.00,WeatherDisplay:10.37,2013-02-17 07:10:00,
2013-02-17 08:20:00,47.0,33.8,30.03,ENE,60,2.0,3.0,60,0.00,CLR,,0.00,WeatherDisplay:10.37,2013-02-17 07:20:00,
2013-02-17 08:30:00,47.5,34.3,30.04,ENE,61,2.0,5.0,60,0.00,CLR,,0.00,WeatherDisplay:10.37,2013-02-17 07:30:00,
2013-02-17 08:40:00,47.7,34.1,30.04,NE,44,2.0,4.0,59,0.00,CLR,,0.00,WeatherDisplay:10.37,2013-02-17 07:40:00,
2013-02-17 08:50:00,48.1,34.5,30.04,NE,44,1.0,4.0,59,0.00,CLR,,0.00,WeatherDisplay:10.37,2013-02-17 07:50:00,
2013-02-17 09:00:00,49.0,34.4,30.04,ENE,77,1.0,3.0,57,0.00,CLR,,0.00,WeatherDisplay:10.37,2013-02-17 08:00:00,
2013-02-17 09:10:00,49.0,34.4,30.04,ENE,60,2.0,4.0,57,0.00,CLR,,0.00,WeatherDisplay:10.37,2013-02-17 08:10:00,
2013-02-17 09:20:00,48.8,34.2,30.04,NE,44,2.0,5.0,57,0.00,CLR,,0.00,WeatherDisplay:10.37,2013-02-17 08:20:00,
2013-02-17 09:30:00,49.5,34.4,30.04,NE,51,1.0,4.0,56,0.00,CLR,,0.00,WeatherDisplay:10.37,2013-02-17 08:30:00,
2013-02-17 09:40:00,50.4,34.3,30.03,ENE,58,0.0,2.0,54,0.00,CLR,,0.00,WeatherDisplay:10.37,2013-02-17 08:40:00,
2013-02-17 09:50:00,50.1,34.5,30.03,NNE,25,2.0,3.0,55,0.00,CLR,,0.00,WeatherDisplay:10.37,2013-02-17 08:50:00,
2013-02-17 10:00:00,49.6,34.1,30.03,NNE,27,2.0,3.0,55,0.00,CLR,,0.00,WeatherDisplay:10.37,2013-02-17 09:00:00,
2013-02-17 10:10:00,50.8,34.7,30.03,NNE,33,2.0,3.0,54,0.00,CLR,,0.00,WeatherDisplay:10.37,2013-02-17 09:10:00,
2013-02-17 10:20:00,52.2,35.0,30.03,ESE,109,1.0,4.0,52,0.00,CLR,,0.00,WeatherDisplay:10.37,2013-02-17 09:20:00,
2013-02-17 10:30:00,52.7,33.5,30.03,SW,225,1.0,3.0,48,0.00,CLR,,0.00,WeatherDisplay:10.37,2013-02-17 09:30:00,
2013-02-17 10:40:00,50.9,33.9,30.03,SW,219,6.0,7.0,52,0.00,CLR,,0.00,WeatherDisplay:10.37,2013-02-17 09:40:00,
2013-02-17 10:50:00,51.1,34.1,30.03,SW,226,1.0,7.0,52,0.00,CLR,,0.00,WeatherDisplay:10.37,2013-02-17 09:50:00,
2013-02-17 11:00:00,50.8,33.8,30.04,SSW,208,5.0,8.0,52,0.00,CLR,,0.00,WeatherDisplay:10.37,2013-02-17 10:00:00,
2013-02-17 11:10:00,52.1,33.5,30.03,South,184,7.0,9.0,49,0.00,CLR,,0.00,WeatherDisplay:10.37,2013-02-17 10:10:00,
2013-02-17 11:20:00,51.3,34.3,30.03,SSW,207,3.0,7.0,52,0.00,CLR,,0.00,WeatherDisplay:10.37,2013-02-17 10:20:00,
2013-02-17 11:30:00,51.1,35.5,30.03,SSW,197,5.0,8.0,55,0.00,CLR,,0.00,WeatherDisplay:10.37,2013-02-17 10:30:00,
2013-02-17 11:40:00,51.4,34.9,30.03,SSW,192,5.0,8.0,53,0.00,CLR,,0.00,WeatherDisplay:10.37,2013-02-17 10:40:00,
2013-02-17 11:50:00,51.1,36.8,30.03,SW,214,6.0,8.0,58,0.00,CLR,,0.00,WeatherDisplay:10.37,2013-02-17 10:50:00,
2013-02-17 12:01:00,51.8,36.6,30.02,SSW,198,3.0,6.0,56,0.00,CLR,,0.00,WeatherDisplay:10.37,2013-02-17 11:01:00,
2013-02-17 12:10:00,51.4,37.6,30.02,SSW,207,6.0,8.0,59,0.00,CLR,,0.00,WeatherDisplay:10.37,2013-02-17 11:10:00,
2013-02-17 12:21:00,51.8,37.0,30.02,South,188,5.0,8.0,57,0.00,CLR,,0.00,WeatherDisplay:10.37,2013-02-17 11:21:00,
2013-02-17 12:30:00,52.5,35.8,30.02,SW,216,3.0,9.0,53,0.00,CLR,,0.00,WeatherDisplay:10.37,2013-02-17 11:30:00,
2013-02-17 12:40:00,52.1,37.4,30.02,SW,215,5.0,9.0,57,0.00,CLR,,0.00,WeatherDisplay:10.37,2013-02-17 11:40:00,
2013-02-17 12:50:00,51.6,36.9,30.02,SSW,207,7.0,10.0,57,0.00,CLR,,0.00,WeatherDisplay:10.37,2013-02-17 11:50:00,
2013-02-17 13:00:00,52.5,38.5,30.01,South,188,3.0,8.0,59,0.00,CLR,,0.00,WeatherDisplay:10.37,2013-02-17 12:00:00,
2013-02-17 13:10:00,52.9,39.4,30.01,SSW,194,2.0,7.0,60,0.00,CLR,,0.00,WeatherDisplay:10.37,2013-02-17 12:10:00,
2013-02-17 13:20:00,52.9,38.5,30.01,SW,218,3.0,9.0,58,0.00,CLR,,0.00,WeatherDisplay:10.37,2013-02-17 12:20:00,
2013-02-17 13:31:00,52.2,38.3,30.01,SW,218,6.0,9.0,59,0.00,CLR,,0.00,WeatherDisplay:10.37,2013-02-17 12:31:00,
2013-02-17 13:40:00,52.8,40.1,30.01,South,188,5.0,8.0,62,0.00,CLR,,0.00,WeatherDisplay:10.37,2013-02-17 12:40:00,
2013-02-17 13:50:00,52.9,40.3,30.00,SW,228,5.0,10.0,62,0.00,CLR,,0.00,WeatherDisplay:10.37,2013-02-17 12:50:00,
2013-02-17 14:00:00,52.8,40.1,30.00,SW,231,7.0,12.0,62,0.00,CLR,,0.00,WeatherDisplay:10.37,2013-02-17 13:00:00,
2013-02-17 14:10:00,52.0,39.4,30.00,West,260,5.0,12.0,62,0.00,CLR,,0.00,WeatherDisplay:10.37,2013-02-17 13:10:00,
2013-02-17 14:20:00,52.1,38.6,30.00,WSW,248,7.0,10.0,60,0.00,CLR,,0.00,WeatherDisplay:10.37,2013-02-17 13:20:00,
2013-02-17 14:30:00,51.8,37.9,30.00,WSW,251,6.0,9.0,59,0.00,CLR,,0.00,WeatherDisplay:10.37,2013-02-17 13:30:00,
2013-02-17 14:40:00,52.1,39.1,30.00,WSW,248,5.0,9.0,61,0.00,CLR,,0.00,WeatherDisplay:10.37,2013-02-17 13:40:00,
2013-02-17 14:51:00,52.1,39.4,30.00,SW,217,7.0,10.0,62,0.00,CLR,,0.00,WeatherDisplay:10.37,2013-02-17 13:51:00,
2013-02-17 15:00:00,52.5,39.8,29.99,WSW,245,6.0,8.0,62,0.00,CLR,,0.00,WeatherDisplay:10.37,2013-02-17 14:00:00,
2013-02-17 15:10:00,53.0,40.3,29.99,West,260,3.0,7.0,62,0.00,CLR,,0.00,WeatherDisplay:10.37,2013-02-17 14:10:00,
2013-02-17 15:20:00,52.3,40.1,29.99,SW,229,8.0,12.0,63,0.00,CLR,,0.00,WeatherDisplay:10.37,2013-02-17 14:20:00,
2013-02-17 15:30:00,51.8,40.8,29.99,WSW,257,3.0,12.0,66,0.00,CLR,,0.00,WeatherDisplay:10.37,2013-02-17 14:30:00,
2013-02-17 15:40:00,51.8,40.4,29.99,SW,236,5.0,12.0,65,0.00,CLR,,0.00,WeatherDisplay:10.37,2013-02-17 14:40:00,
2013-02-17 15:50:00,52.2,40.8,29.99,WSW,247,6.0,9.0,65,0.00,CLR,,0.00,WeatherDisplay:10.37,2013-02-17 14:50:00,
2013-02-17 16:00:00,51.5,40.9,29.99,WSW,251,5.0,8.0,67,0.00,CLR,,0.00,WeatherDisplay:10.37,2013-02-17 15:00:00,
2013-02-17 16:10:00,50.9,41.1,29.99,WSW,256,3.0,10.0,69,0.00,CLR,,0.00,WeatherDisplay:10.37,2013-02-17 15:10:00,
2013-02-17 16:20:00,51.0,41.2,29.99,WSW,254,3.0,6.0,69,0.00,CLR,,0.00,WeatherDisplay:10.37,2013-02-17 15:20:00,
2013-02-17 16:30:00,51.0,41.1,29.99,SW,229,3.0,8.0,69,0.00,CLR,,0.00,WeatherDisplay:10.37,2013-02-17 15:30:00,
2013-02-17 16:40:00,50.5,41.1,29.99,WSW,249,5.0,8.0,70,0.00,CLR,,0.00,WeatherDisplay:10.37,2013-02-17 15:40:00,
2013-02-17 16:50:00,50.7,41.6,29.99,WSW,241,3.0,8.0,71,0.00,CLR,,0.00,WeatherDisplay:10.37,2013-02-17 15:50:00,
2013-02-17 17:00:00,50.6,41.2,29.99,WSW,247,3.0,8.0,70,0.00,CLR,,0.00,WeatherDisplay:10.37,2013-02-17 16:00:00,
2013-02-17 17:11:00,50.1,41.5,29.99,NW,308,7.0,13.0,72,0.00,CLR,,0.00,WeatherDisplay:10.37,2013-02-17 16:11:00,
2013-02-17 17:20:00,48.3,40.7,29.99,WNW,287,8.0,13.0,75,0.00,CLR,,0.00,WeatherDisplay:10.37,2013-02-17 16:20:00,
2013-02-17 17:30:00,47.8,40.3,29.99,West,273,6.0,12.0,75,0.00,CLR,,0.00,WeatherDisplay:10.37,2013-02-17 16:30:00,
2013-02-17 17:40:00,47.9,40.4,29.99,WSW,251,5.0,10.0,75,0.00,CLR,,0.00,WeatherDisplay:10.37,2013-02-17 16:40:00,
2013-02-17 17:50:00,47.9,40.4,29.99,West,267,5.0,12.0,75,0.00,CLR,,0.00,WeatherDisplay:10.37,2013-02-17 16:50:00,
2013-02-17 18:00:00,48.1,40.2,29.99,WNW,284,5.0,10.0,74,0.00,CLR,,0.00,WeatherDisplay:10.37,2013-02-17 17:00:00,
2013-02-17 18:10:00,48.2,38.5,30.00,West,259,6.0,10.0,69,0.00,CLR,,0.00,WeatherDisplay:10.37,2013-02-17 17:10:00,
2013-02-17 18:20:00,48.3,38.2,30.00,West,262,2.0,9.0,68,0.00,CLR,,0.00,WeatherDisplay:10.37,2013-02-17 17:20:00,
2013-02-17 18:30:00,48.5,37.3,30.00,WSW,258,2.0,7.0,65,0.00,CLR,,0.00,WeatherDisplay:10.37,2013-02-17 17:30:00,
2013-02-17 18:40:00,48.9,36.9,30.00,WNW,288,1.0,5.0,63,0.00,CLR,,0.00,WeatherDisplay:10.37,2013-02-17 17:40:00,
2013-02-17 18:50:00,49.3,36.4,30.00,West,266,2.0,4.0,61,0.00,CLR,,0.00,WeatherDisplay:10.37,2013-02-17 17:50:00,
2013-02-17 19:00:00,49.5,36.2,30.00,West,271,1.0,3.0,60,0.00,CLR,,0.00,WeatherDisplay:10.37,2013-02-17 18:00:00,
2013-02-17 19:10:00,49.7,35.9,30.00,West,268,1.0,3.0,59,0.00,CLR,,0.00,WeatherDisplay:10.37,2013-02-17 18:10:00,
2013-02-17 19:20:00,49.8,36.0,30.01,West,272,0.0,1.0,59,0.00,CLR,,0.00,WeatherDisplay:10.37,2013-02-17 18:20:00,
2013-02-17 19:30:00,50.0,38.3,30.01,ESE,122,2.0,4.0,64,0.00,CLR,,0.00,WeatherDisplay:10.37,2013-02-17 18:30:00,
2013-02-17 19:41:00,49.7,38.8,30.00,ESE,102,2.0,5.0,66,0.00,CLR,,0.00,WeatherDisplay:10.37,2013-02-17 18:41:00,
2013-02-17 19:50:00,49.5,39.3,30.00,East,91,2.0,6.0,68,0.00,CLR,,0.00,WeatherDisplay:10.37,2013-02-17 18:50:00,
2013-02-17 20:00:00,49.2,39.1,30.00,ENE,75,2.0,5.0,68,0.00,CLR,,0.00,WeatherDisplay:10.37,2013-02-17 19:00:00,
2013-02-17 20:10:00,49.1,39.4,30.01,ENE,65,2.0,4.0,69,0.00,CLR,,0.00,WeatherDisplay:10.37,2013-02-17 19:10:00,
2013-02-17 20:20:00,48.9,39.9,30.01,ENE,67,2.0,5.0,71,0.00,CLR,,0.00,WeatherDisplay:10.37,2013-02-17 19:20:00,
2013-02-17 20:30:00,48.6,40.0,30.01,East,79,2.0,3.0,72,0.00,CLR,,0.00,WeatherDisplay:10.37,2013-02-17 19:30:00,
2013-02-17 20:40:00,48.2,39.9,30.01,ENE,61,3.0,5.0,73,0.00,CLR,,0.00,WeatherDisplay:10.37,2013-02-17 19:40:00,
2013-02-17 20:50:00,48.1,40.2,30.01,ENE,70,2.0,4.0,74,0.00,CLR,,0.00,WeatherDisplay:10.37,2013-02-17 19:50:00,
2013-02-17 21:00:00,48.1,40.5,30.01,ENE,70,2.0,5.0,75,0.00,CLR,,0.00,WeatherDisplay:10.37,2013-02-17 20:00:00,
2013-02-17 21:10:00,48.0,40.4,30.01,NE,46,2.0,4.0,75,0.00,CLR,,0.00,WeatherDisplay:10.37,2013-02-17 20:10:00,
2013-02-17 21:20:00,47.8,40.3,30.01,NE,50,2.0,5.0,75,0.00,CLR,,0.00,WeatherDisplay:10.37,2013-02-17 20:20:00,
2013-02-17 21:30:00,47.8,39.9,30.01,NE,50,2.0,4.0,74,0.00,CLR,,0.00,WeatherDisplay:10.37,2013-02-17 20:30:00,
2013-02-17 21:40:00,47.6,39.7,30.01,NE,37,2.0,5.0,74,0.00,CLR,,0.00,WeatherDisplay:10.37,2013-02-17 20:40:00,
2013-02-17 21:50:00,47.5,39.6,30.01,NNE,27,3.0,4.0,74,0.00,CLR,,0.00,WeatherDisplay:10.37,2013-02-17 20:50:00,
2013-02-17 22:00:00,47.6,39.4,30.01,NE,36,3.0,5.0,73,0.00,CLR,,0.00,WeatherDisplay:10.37,2013-02-17 21:00:00,
2013-02-17 22:10:00,47.7,39.1,30.01,NNE,29,2.0,4.0,72,0.00,CLR,,0.00,WeatherDisplay:10.37,2013-02-17 21:10:00,
2013-02-17 22:20:00,47.7,39.1,30.01,NNE,33,2.0,3.0,72,0.00,CLR,,0.00,WeatherDisplay:10.37,2013-02-17 21:20:00,
2013-02-17 22:30:00,47.6,39.0,30.01,NE,45,1.0,5.0,72,0.00,CLR,,0.00,WeatherDisplay:10.37,2013-02-17 21:30:00,
2013-02-17 22:40:00,47.5,39.3,30.01,ENE,64,2.0,3.0,73,0.00,CLR,,0.00,WeatherDisplay:10.37,2013-02-17 21:40:00,
2013-02-17 22:50:00,47.3,39.1,30.00,NE,37,2.0,4.0,73,0.00,CLR,,0.00,WeatherDisplay:10.37,2013-02-17 21:50:00,
2013-02-17 23:00:00,47.2,39.0,30.00,NE,34,2.0,3.0,73,0.00,CLR,,0.00,WeatherDisplay:10.37,2013-02-17 22:00:00,
2013-02-17 23:10:00,47.0,39.2,30.00,NNE,30,2.0,3.0,74,0.00,CLR,,0.00,WeatherDisplay:10.37,2013-02-17 22:10:00,
2013-02-17 23:20:00,47.0,39.1,30.00,NNE,32,1.0,2.0,74,0.00,CLR,,0.00,WeatherDisplay:10.37,2013-02-17 22:20:00,
2013-02-17 23:30:00,47.2,39.0,30.00,NNE,32,1.0,3.0,73,0.00,CLR,,0.00,WeatherDisplay:10.37,2013-02-17 22:30:00,
2013-02-17 23:40:00,47.3,38.4,30.00,NNE,22,1.0,3.0,71,0.00,CLR,,0.00,WeatherDisplay:10.37,2013-02-17 22:40:00,
2013-02-17 23:50:00,47.3,38.4,30.00,NNE,17,0.0,2.0,71,0.00,CLR,,0.00,WeatherDisplay:10.37,2013-02-17 22:50:00,